sensor_id;sensor_type;location;lat;lon;timestamp;pressure;altitude;pressure_sealevel;temperature
80246;BMP280;69558;39.208;-77.226;2023-05-02T00:00:45;98224.72;;;20.23
80246;BMP280;69558;39.208;-77.226;2023-05-02T00:03:11;98238.19;;;20.27
80246;BMP280;69558;39.208;-77.226;2023-05-02T00:05:37;98229.50;;;20.26
80246;BMP280;69558;39.208;-77.226;2023-05-02T00:08:03;98218.09;;;20.21
80246;BMP280;69558;39.208;-77.226;2023-05-02T00:10:29;98215.19;;;20.17
80246;BMP280;69558;39.208;-77.226;2023-05-02T00:12:55;98227.31;;;20.18
80246;BMP280;69558;39.208;-77.226;2023-05-02T00:15:21;98225.53;;;20.24
80246;BMP280;69558;39.208;-77.226;2023-05-02T00:17:47;98223.97;;;20.28
80246;BMP280;69558;39.208;-77.226;2023-05-02T00:20:13;98216.03;;;20.23
80246;BMP280;69558;39.208;-77.226;2023-05-02T00:22:40;98217.34;;;20.25
80246;BMP280;69558;39.208;-77.226;2023-05-02T00:25:06;98219.69;;;20.22
80246;BMP280;69558;39.208;-77.226;2023-05-02T00:27:32;98211.56;;;20.23
80246;BMP280;69558;39.208;-77.226;2023-05-02T00:29:59;98207.16;;;20.29
80246;BMP280;69558;39.208;-77.226;2023-05-02T00:32:26;98209.19;;;20.22
80246;BMP280;69558;39.208;-77.226;2023-05-02T00:34:53;98208.94;;;20.23
80246;BMP280;69558;39.208;-77.226;2023-05-02T00:37:20;98203.63;;;20.18
80246;BMP280;69558;39.208;-77.226;2023-05-02T00:39:46;98218.91;;;20.21
80246;BMP280;69558;39.208;-77.226;2023-05-02T00:42:13;98225.97;;;20.21
80246;BMP280;69558;39.208;-77.226;2023-05-02T00:44:39;98224.09;;;20.16
80246;BMP280;69558;39.208;-77.226;2023-05-02T00:47:05;98227.06;;;20.20
80246;BMP280;69558;39.208;-77.226;2023-05-02T00:49:31;98238.06;;;20.17
80246;BMP280;69558;39.208;-77.226;2023-05-02T00:51:57;98246.28;;;20.20
80246;BMP280;69558;39.208;-77.226;2023-05-02T00:54:23;98256.50;;;20.17
80246;BMP280;69558;39.208;-77.226;2023-05-02T00:56:49;98258.31;;;20.16
80246;BMP280;69558;39.208;-77.226;2023-05-02T00:59:15;98266.53;;;20.20
80246;BMP280;69558;39.208;-77.226;2023-05-02T01:04:39;98269.66;;;20.17
80246;BMP280;69558;39.208;-77.226;2023-05-02T01:13:28;98280.44;;;20.15
80246;BMP280;69558;39.208;-77.226;2023-05-02T01:15:55;98281.22;;;20.16
80246;BMP280;69558;39.208;-77.226;2023-05-02T01:18:24;98287.53;;;20.15
80246;BMP280;69558;39.208;-77.226;2023-05-02T01:20:57;98290.72;;;20.17
80246;BMP280;69558;39.208;-77.226;2023-05-02T01:26:25;98290.69;;;20.11
80246;BMP280;69558;39.208;-77.226;2023-05-02T01:29:04;98296.16;;;20.10
80246;BMP280;69558;39.208;-77.226;2023-05-02T01:31:46;98290.34;;;20.08
80246;BMP280;69558;39.208;-77.226;2023-05-02T01:34:13;98326.16;;;20.09
80246;BMP280;69558;39.208;-77.226;2023-05-02T01:36:43;98342.22;;;20.07
80246;BMP280;69558;39.208;-77.226;2023-05-02T01:39:13;98358.78;;;20.08
80246;BMP280;69558;39.208;-77.226;2023-05-02T01:41:41;98357.72;;;20.09
80246;BMP280;69558;39.208;-77.226;2023-05-02T01:44:08;98344.09;;;20.12
80246;BMP280;69558;39.208;-77.226;2023-05-02T01:46:36;98327.97;;;20.08
80246;BMP280;69558;39.208;-77.226;2023-05-02T01:49:05;98313.72;;;20.04
80246;BMP280;69558;39.208;-77.226;2023-05-02T01:51:34;98304.84;;;20.10
80246;BMP280;69558;39.208;-77.226;2023-05-02T01:54:04;98283.25;;;20.08
80246;BMP280;69558;39.208;-77.226;2023-05-02T01:56:35;98272.72;;;20.08
80246;BMP280;69558;39.208;-77.226;2023-05-02T01:59:04;98286.38;;;20.05
80246;BMP280;69558;39.208;-77.226;2023-05-02T02:01:31;98280.88;;;20.07
80246;BMP280;69558;39.208;-77.226;2023-05-02T02:03:59;98276.41;;;20.07
80246;BMP280;69558;39.208;-77.226;2023-05-02T02:06:26;98270.38;;;20.07
80246;BMP280;69558;39.208;-77.226;2023-05-02T02:08:53;98265.25;;;20.00
80246;BMP280;69558;39.208;-77.226;2023-05-02T02:11:38;98275.66;;;20.12
80246;BMP280;69558;39.208;-77.226;2023-05-02T02:14:17;98278.78;;;20.09
80246;BMP280;69558;39.208;-77.226;2023-05-02T02:16:44;98262.63;;;20.00
80246;BMP280;69558;39.208;-77.226;2023-05-02T02:19:12;98265.25;;;20.00
80246;BMP280;69558;39.208;-77.226;2023-05-02T02:21:42;98260.78;;;20.01
80246;BMP280;69558;39.208;-77.226;2023-05-02T02:24:09;98266.06;;;20.01
80246;BMP280;69558;39.208;-77.226;2023-05-02T02:26:36;98262.91;;;19.99
80246;BMP280;69558;39.208;-77.226;2023-05-02T02:29:03;98266.84;;;20.01
80246;BMP280;69558;39.208;-77.226;2023-05-02T02:31:33;98269.25;;;20.03
80246;BMP280;69558;39.208;-77.226;2023-05-02T02:34:01;98262.69;;;20.05
80246;BMP280;69558;39.208;-77.226;2023-05-02T02:36:51;98256.38;;;20.06
80246;BMP280;69558;39.208;-77.226;2023-05-02T02:40:44;98259.50;;;20.03
80246;BMP280;69558;39.208;-77.226;2023-05-02T02:48:18;98243.41;;;20.00
80246;BMP280;69558;39.208;-77.226;2023-05-02T02:53:33;98231.72;;;19.91
80246;BMP280;69558;39.208;-77.226;2023-05-02T02:56:05;98241.72;;;19.89
80246;BMP280;69558;39.208;-77.226;2023-05-02T02:59:04;98237.25;;;19.89
80246;BMP280;69558;39.208;-77.226;2023-05-02T03:01:31;98252.56;;;19.92
80246;BMP280;69558;39.208;-77.226;2023-05-02T03:03:59;98248.59;;;19.90
80246;BMP280;69558;39.208;-77.226;2023-05-02T03:06:28;98243.63;;;19.93
80246;BMP280;69558;39.208;-77.226;2023-05-02T03:08:55;98245.69;;;19.91
80246;BMP280;69558;39.208;-77.226;2023-05-02T03:11:21;98240.72;;;19.95
80246;BMP280;69558;39.208;-77.226;2023-05-02T03:13:47;98242.03;;;19.92
80246;BMP280;69558;39.208;-77.226;2023-05-02T03:19:02;98242.03;;;19.92
80246;BMP280;69558;39.208;-77.226;2023-05-02T03:21:29;98242.31;;;19.96
80246;BMP280;69558;39.208;-77.226;2023-05-02T03:24:00;98234.16;;;19.92
80246;BMP280;69558;39.208;-77.226;2023-05-02T03:26:26;98238.44;;;19.98
80246;BMP280;69558;39.208;-77.226;2023-05-02T03:28:54;98240.72;;;19.95
80246;BMP280;69558;39.208;-77.226;2023-05-02T03:31:20;98235.72;;;19.93
80246;BMP280;69558;39.208;-77.226;2023-05-02T03:33:46;98229.09;;;19.91
80246;BMP280;69558;39.208;-77.226;2023-05-02T03:36:13;98229.06;;;19.86
80246;BMP280;69558;39.208;-77.226;2023-05-02T03:38:39;98230.09;;;19.85
80246;BMP280;69558;39.208;-77.226;2023-05-02T03:41:05;98236.19;;;19.90
80246;BMP280;69558;39.208;-77.226;2023-05-02T03:43:31;98230.47;;;19.93
80246;BMP280;69558;39.208;-77.226;2023-05-02T03:46:02;98227.53;;;19.90
80246;BMP280;69558;39.208;-77.226;2023-05-02T03:48:28;98229.88;;;19.91
80246;BMP280;69558;39.208;-77.226;2023-05-02T03:50:54;98239.91;;;19.89
80246;BMP280;69558;39.208;-77.226;2023-05-02T03:53:21;98228.31;;;19.90
80246;BMP280;69558;39.208;-77.226;2023-05-02T03:55:47;98229.38;;;19.89
80246;BMP280;69558;39.208;-77.226;2023-05-02T03:58:13;98230.16;;;19.90
80246;BMP280;69558;39.208;-77.226;2023-05-02T04:00:39;98232.25;;;19.88
80246;BMP280;69558;39.208;-77.226;2023-05-02T04:03:05;98237.50;;;19.88
80246;BMP280;69558;39.208;-77.226;2023-05-02T04:05:31;98236.47;;;19.89
80246;BMP280;69558;39.208;-77.226;2023-05-02T04:07:58;98232.47;;;19.86
80246;BMP280;69558;39.208;-77.226;2023-05-02T04:10:23;98224.06;;;19.84
80246;BMP280;69558;39.208;-77.226;2023-05-02T04:12:49;98224.34;;;19.88
80246;BMP280;69558;39.208;-77.226;2023-05-02T04:15:16;98221.78;;;19.93
80246;BMP280;69558;39.208;-77.226;2023-05-02T04:17:41;98227.09;;;19.98
80246;BMP280;69558;39.208;-77.226;2023-05-02T04:20:07;98222.38;;;20.00
80246;BMP280;69558;39.208;-77.226;2023-05-02T04:22:33;98223.16;;;20.00
80246;BMP280;69558;39.208;-77.226;2023-05-02T04:24:59;98218.19;;;20.04
80246;BMP280;69558;39.208;-77.226;2023-05-02T04:27:25;98220.88;;;20.09
80246;BMP280;69558;39.208;-77.226;2023-05-02T04:29:52;98216.41;;;20.09
80246;BMP280;69558;39.208;-77.226;2023-05-02T04:32:18;98211.16;;;20.09
80246;BMP280;69558;39.208;-77.226;2023-05-02T04:34:44;98214.81;;;20.08
80246;BMP280;69558;39.208;-77.226;2023-05-02T04:37:11;98209.63;;;20.13
80246;BMP280;69558;39.208;-77.226;2023-05-02T04:39:36;98190.41;;;20.13
80246;BMP280;69558;39.208;-77.226;2023-05-02T04:42:03;98191.19;;;20.13
80246;BMP280;69558;39.208;-77.226;2023-05-02T04:44:29;98168.19;;;20.04
80246;BMP280;69558;39.208;-77.226;2023-05-02T04:46:55;98176.50;;;20.18
80246;BMP280;69558;39.208;-77.226;2023-05-02T04:49:21;98178.00;;;20.08
80246;BMP280;69558;39.208;-77.226;2023-05-02T04:51:47;98183.00;;;20.10
80246;BMP280;69558;39.208;-77.226;2023-05-02T04:54:13;98175.63;;;20.07
80246;BMP280;69558;39.208;-77.226;2023-05-02T04:56:40;98169.06;;;20.09
80246;BMP280;69558;39.208;-77.226;2023-05-02T04:59:06;98180.41;;;20.15
80246;BMP280;69558;39.208;-77.226;2023-05-02T05:01:31;98170.63;;;20.10
80246;BMP280;69558;39.208;-77.226;2023-05-02T05:03:57;98166.66;;;20.03
80246;BMP280;69558;39.208;-77.226;2023-05-02T05:06:23;98166.91;;;20.06
80246;BMP280;69558;39.208;-77.226;2023-05-02T05:08:49;98164.53;;;20.05
80246;BMP280;69558;39.208;-77.226;2023-05-02T05:11:15;98169.00;;;20.04
80246;BMP280;69558;39.208;-77.226;2023-05-02T05:13:42;98144.13;;;19.90
80246;BMP280;69558;39.208;-77.226;2023-05-02T05:16:07;98161.06;;;19.99
80246;BMP280;69558;39.208;-77.226;2023-05-02T05:18:33;98141.75;;;19.89
80246;BMP280;69558;39.208;-77.226;2023-05-02T05:21:09;98162.00;;;19.88
80246;BMP280;69558;39.208;-77.226;2023-05-02T05:23:36;98150.75;;;19.93
80246;BMP280;69558;39.208;-77.226;2023-05-02T05:26:15;98146.81;;;19.95
80246;BMP280;69558;39.208;-77.226;2023-05-02T05:28:41;98153.44;;;19.98
80246;BMP280;69558;39.208;-77.226;2023-05-02T05:31:09;98144.97;;;19.96
80246;BMP280;69558;39.208;-77.226;2023-05-02T05:33:37;98137.66;;;19.98
80246;BMP280;69558;39.208;-77.226;2023-05-02T05:38:30;98120.03;;;20.03
80246;BMP280;69558;39.208;-77.226;2023-05-02T05:40:56;98112.66;;;20.00
80246;BMP280;69558;39.208;-77.226;2023-05-02T05:43:24;98110.03;;;20.00
80246;BMP280;69558;39.208;-77.226;2023-05-02T05:45:51;98102.91;;;20.01
80246;BMP280;69558;39.208;-77.226;2023-05-02T05:48:18;98083.63;;;19.90
80246;BMP280;69558;39.208;-77.226;2023-05-02T05:50:44;98102.69;;;20.02
80246;BMP280;69558;39.208;-77.226;2023-05-02T05:53:10;98112.16;;;20.03
80246;BMP280;69558;39.208;-77.226;2023-05-02T05:55:35;98122.69;;;20.03
80246;BMP280;69558;39.208;-77.226;2023-05-02T05:58:03;98114.03;;;20.03
80246;BMP280;69558;39.208;-77.226;2023-05-02T06:00:29;98115.34;;;20.05
80246;BMP280;69558;39.208;-77.226;2023-05-02T06:02:55;98117.91;;;20.00
80246;BMP280;69558;39.208;-77.226;2023-05-02T06:05:21;98115.84;;;20.02
80246;BMP280;69558;39.208;-77.226;2023-05-02T06:07:47;98118.22;;;20.04
80246;BMP280;69558;39.208;-77.226;2023-05-02T06:10:13;98121.13;;;20.02
80246;BMP280;69558;39.208;-77.226;2023-05-02T06:12:39;98115.84;;;20.02
80246;BMP280;69558;39.208;-77.226;2023-05-02T06:15:06;98113.44;;;20.01
80246;BMP280;69558;39.208;-77.226;2023-05-02T06:17:32;98106.28;;;19.96
80246;BMP280;69558;39.208;-77.226;2023-05-02T06:19:57;98105.56;;;20.01
80246;BMP280;69558;39.208;-77.226;2023-05-02T06:22:23;98099.78;;;19.99
80246;BMP280;69558;39.208;-77.226;2023-05-02T06:24:49;98093.94;;;19.97
80246;BMP280;69558;39.208;-77.226;2023-05-02T06:27:15;98101.03;;;19.96
80246;BMP280;69558;39.208;-77.226;2023-05-02T06:29:41;98098.19;;;19.98
80246;BMP280;69558;39.208;-77.226;2023-05-02T06:32:07;98093.72;;;19.98
80246;BMP280;69558;39.208;-77.226;2023-05-02T06:34:34;98091.59;;;20.00
80246;BMP280;69558;39.208;-77.226;2023-05-02T06:37:00;98073.41;;;19.94
80246;BMP280;69558;39.208;-77.226;2023-05-02T06:39:26;98091.84;;;19.94
80246;BMP280;69558;39.208;-77.226;2023-05-02T06:41:58;98090.75;;;19.95
80246;BMP280;69558;39.208;-77.226;2023-05-02T06:44:24;98088.91;;;19.95
80246;BMP280;69558;39.208;-77.226;2023-05-02T06:46:50;98088.47;;;19.98
80246;BMP280;69558;39.208;-77.226;2023-05-02T06:49:16;98085.19;;;19.91
80246;BMP280;69558;39.208;-77.226;2023-05-02T06:51:42;98090.00;;;19.94
80246;BMP280;69558;39.208;-77.226;2023-05-02T06:54:08;98080.50;;;19.93
80246;BMP280;69558;39.208;-77.226;2023-05-02T06:56:34;98077.59;;;19.95
80246;BMP280;69558;39.208;-77.226;2023-05-02T06:59:01;98079.47;;;19.94
80246;BMP280;69558;39.208;-77.226;2023-05-02T07:01:27;98084.97;;;19.93
80246;BMP280;69558;39.208;-77.226;2023-05-02T07:03:53;98078.09;;;19.92
80246;BMP280;69558;39.208;-77.226;2023-05-02T07:06:19;98078.69;;;19.94
80246;BMP280;69558;39.208;-77.226;2023-05-02T07:08:46;98067.88;;;19.95
80246;BMP280;69558;39.208;-77.226;2023-05-02T07:11:12;98075.53;;;19.97
80246;BMP280;69558;39.208;-77.226;2023-05-02T07:13:37;98075.78;;;19.95
80246;BMP280;69558;39.208;-77.226;2023-05-02T07:16:03;98072.31;;;19.90
80246;BMP280;69558;39.208;-77.226;2023-05-02T07:18:30;98075.22;;;19.88
80246;BMP280;69558;39.208;-77.226;2023-05-02T07:20:55;98074.97;;;19.95
80246;BMP280;69558;39.208;-77.226;2023-05-02T07:23:21;98078.69;;;19.94
80246;BMP280;69558;39.208;-77.226;2023-05-02T07:25:47;98083.19;;;19.98
80246;BMP280;69558;39.208;-77.226;2023-05-02T07:28:13;98075.59;;;20.02
80246;BMP280;69558;39.208;-77.226;2023-05-02T07:30:39;98079.81;;;20.03
80246;BMP280;69558;39.208;-77.226;2023-05-02T07:33:05;98093.19;;;20.01
80246;BMP280;69558;39.208;-77.226;2023-05-02T07:35:31;98089.59;;;20.07
80246;BMP280;69558;39.208;-77.226;2023-05-02T07:37:57;98085.28;;;20.01
80246;BMP280;69558;39.208;-77.226;2023-05-02T07:40:23;98089.31;;;20.09
80246;BMP280;69558;39.208;-77.226;2023-05-02T07:42:49;98100.94;;;20.13
80246;BMP280;69558;39.208;-77.226;2023-05-02T07:45:15;98078.78;;;20.09
80246;BMP280;69558;39.208;-77.226;2023-05-02T07:47:41;98100.94;;;20.13
80246;BMP280;69558;39.208;-77.226;2023-05-02T07:50:07;98091.16;;;20.08
80246;BMP280;69558;39.208;-77.226;2023-05-02T07:52:33;98114.38;;;20.11
80246;BMP280;69558;39.208;-77.226;2023-05-02T07:54:59;98090.50;;;19.96
80246;BMP280;69558;39.208;-77.226;2023-05-02T07:57:25;98106.34;;;20.01
80246;BMP280;69558;39.208;-77.226;2023-05-02T07:59:51;98117.16;;;20.05
80246;BMP280;69558;39.208;-77.226;2023-05-02T08:02:17;98112.47;;;20.07
80246;BMP280;69558;39.208;-77.226;2023-05-02T08:04:46;98115.09;;;20.07
80246;BMP280;69558;39.208;-77.226;2023-05-02T08:07:12;98111.41;;;20.08
80246;BMP280;69558;39.208;-77.226;2023-05-02T08:09:38;98106.16;;;20.08
80246;BMP280;69558;39.208;-77.226;2023-05-02T08:12:04;98092.63;;;19.94
80246;BMP280;69558;39.208;-77.226;2023-05-02T08:14:30;98096.06;;;20.00
80246;BMP280;69558;39.208;-77.226;2023-05-02T08:16:58;98103.22;;;20.04
80246;BMP280;69558;39.208;-77.226;2023-05-02T08:19:24;98113.75;;;20.04
80246;BMP280;69558;39.208;-77.226;2023-05-02T08:21:53;98094.19;;;19.95
80246;BMP280;69558;39.208;-77.226;2023-05-02T08:24:19;98117.91;;;20.00
80246;BMP280;69558;39.208;-77.226;2023-05-02T08:26:46;98120.81;;;19.99
80246;BMP280;69558;39.208;-77.226;2023-05-02T08:29:11;98128.13;;;19.97
80246;BMP280;69558;39.208;-77.226;2023-05-02T08:31:39;98138.16;;;20.00
80246;BMP280;69558;39.208;-77.226;2023-05-02T08:34:05;98138.91;;;19.95
80246;BMP280;69558;39.208;-77.226;2023-05-02T08:36:31;98144.44;;;19.94
80246;BMP280;69558;39.208;-77.226;2023-05-02T08:38:57;98150.00;;;19.97
80246;BMP280;69558;39.208;-77.226;2023-05-02T08:41:24;98157.31;;;19.95
80246;BMP280;69558;39.208;-77.226;2023-05-02T08:43:50;98155.44;;;19.91
80246;BMP280;69558;39.208;-77.226;2023-05-02T08:46:17;98163.13;;;19.92
80246;BMP280;69558;39.208;-77.226;2023-05-02T08:48:45;98167.06;;;19.95
80246;BMP280;69558;39.208;-77.226;2023-05-02T08:51:15;98156.44;;;19.85
80246;BMP280;69558;39.208;-77.226;2023-05-02T08:53:42;98170.19;;;19.92
80246;BMP280;69558;39.208;-77.226;2023-05-02T08:56:09;98175.50;;;19.97
80246;BMP280;69558;39.208;-77.226;2023-05-02T08:58:39;98171.56;;;19.94
80246;BMP280;69558;39.208;-77.226;2023-05-02T09:01:15;98159.59;;;19.87
80246;BMP280;69558;39.208;-77.226;2023-05-02T09:03:43;98169.91;;;19.88
80246;BMP280;69558;39.208;-77.226;2023-05-02T09:06:15;98170.69;;;19.89
80246;BMP280;69558;39.208;-77.226;2023-05-02T09:08:42;98168.28;;;19.87
80246;BMP280;69558;39.208;-77.226;2023-05-02T09:11:10;98172.59;;;19.93
80246;BMP280;69558;39.208;-77.226;2023-05-02T09:13:38;98170.19;;;19.92
80246;BMP280;69558;39.208;-77.226;2023-05-02T09:16:09;98168.06;;;19.89
80246;BMP280;69558;39.208;-77.226;2023-05-02T09:18:44;98175.22;;;19.93
80246;BMP280;69558;39.208;-77.226;2023-05-02T09:21:18;98178.06;;;19.92
80246;BMP280;69558;39.208;-77.226;2023-05-02T09:23:56;98180.94;;;19.90
80246;BMP280;69558;39.208;-77.226;2023-05-02T09:26:28;98185.91;;;19.87
80246;BMP280;69558;39.208;-77.226;2023-05-02T09:29:00;98182.53;;;19.91
80246;BMP280;69558;39.208;-77.226;2023-05-02T09:31:28;98185.09;;;19.86
80246;BMP280;69558;39.208;-77.226;2023-05-02T09:34:11;98189.63;;;19.91
80246;BMP280;69558;39.208;-77.226;2023-05-02T09:36:44;98194.38;;;19.89
80246;BMP280;69558;39.208;-77.226;2023-05-02T09:39:12;98199.63;;;19.89
80246;BMP280;69558;39.208;-77.226;2023-05-02T09:41:42;98192.47;;;19.84
80246;BMP280;69558;39.208;-77.226;2023-05-02T09:44:10;98198.59;;;19.90
80246;BMP280;69558;39.208;-77.226;2023-05-02T09:46:43;98206.94;;;19.87
80246;BMP280;69558;39.208;-77.226;2023-05-02T09:49:10;98206.13;;;19.81
80246;BMP280;69558;39.208;-77.226;2023-05-02T09:51:37;98207.16;;;19.80
80246;BMP280;69558;39.208;-77.226;2023-05-02T09:54:03;98214.31;;;19.85
80246;BMP280;69558;39.208;-77.226;2023-05-02T09:56:29;98209.53;;;19.82
80246;BMP280;69558;39.208;-77.226;2023-05-02T09:59:14;98208.78;;;19.86
80246;BMP280;69558;39.208;-77.226;2023-05-02T10:01:41;98196.34;;;19.76
80246;BMP280;69558;39.208;-77.226;2023-05-02T10:04:12;98211.69;;;19.85
80246;BMP280;69558;39.208;-77.226;2023-05-02T10:06:44;98213.53;;;19.84
80246;BMP280;69558;39.208;-77.226;2023-05-02T10:09:14;98226.75;;;19.89
80246;BMP280;69558;39.208;-77.226;2023-05-02T10:11:43;98230.19;;;19.95
80246;BMP280;69558;39.208;-77.226;2023-05-02T10:14:11;98225.47;;;19.97
80246;BMP280;69558;39.208;-77.226;2023-05-02T10:17:15;98222.31;;;19.95
80246;BMP280;69558;39.208;-77.226;2023-05-02T10:22:18;98234.53;;;20.06
80246;BMP280;69558;39.208;-77.226;2023-05-02T10:24:48;98243.22;;;20.06
80246;BMP280;69558;39.208;-77.226;2023-05-02T10:27:14;98247.16;;;20.04
80246;BMP280;69558;39.208;-77.226;2023-05-02T10:29:41;98252.75;;;20.07
80246;BMP280;69558;39.208;-77.226;2023-05-02T10:32:08;98253.25;;;20.09
80246;BMP280;69558;39.208;-77.226;2023-05-02T10:34:34;98256.94;;;20.08
80246;BMP280;69558;39.208;-77.226;2023-05-02T10:37:01;98250.09;;;20.07
80246;BMP280;69558;39.208;-77.226;2023-05-02T10:39:28;98250.31;;;20.06
80246;BMP280;69558;39.208;-77.226;2023-05-02T10:41:55;98255.59;;;20.06
80246;BMP280;69558;39.208;-77.226;2023-05-02T10:44:36;98252.69;;;20.02
80246;BMP280;69558;39.208;-77.226;2023-05-02T10:47:23;98252.31;;;19.94
80246;BMP280;69558;39.208;-77.226;2023-05-02T10:49:50;98264.69;;;19.93
80246;BMP280;69558;39.208;-77.226;2023-05-02T10:52:37;98256.19;;;19.91
80246;BMP280;69558;39.208;-77.226;2023-05-02T11:00:31;98257.56;;;19.94
80246;BMP280;69558;39.208;-77.226;2023-05-02T11:02:58;98257.31;;;19.95
80246;BMP280;69558;39.208;-77.226;2023-05-02T11:05:25;98259.94;;;19.95
80246;BMP280;69558;39.208;-77.226;2023-05-02T11:10:53;98241.09;;;19.82
80246;BMP280;69558;39.208;-77.226;2023-05-02T11:13:48;98258.63;;;19.93
80246;BMP280;69558;39.208;-77.226;2023-05-02T11:16:14;98256.00;;;19.93
80246;BMP280;69558;39.208;-77.226;2023-05-02T11:18:59;98256.72;;;19.88
80246;BMP280;69558;39.208;-77.226;2023-05-02T11:21:27;98256.47;;;19.90
80246;BMP280;69558;39.208;-77.226;2023-05-02T11:30:08;98266.44;;;19.88
80246;BMP280;69558;39.208;-77.226;2023-05-02T11:35:24;98249.75;;;19.77
80246;BMP280;69558;39.208;-77.226;2023-05-02T11:38:11;98269.63;;;19.90
80246;BMP280;69558;39.208;-77.226;2023-05-02T11:40:37;98267.44;;;19.87
80246;BMP280;69558;39.208;-77.226;2023-05-02T11:43:14;98275.34;;;19.87
80246;BMP280;69558;39.208;-77.226;2023-05-02T11:45:40;98277.44;;;19.85
80246;BMP280;69558;39.208;-77.226;2023-05-02T11:48:08;98287.69;;;19.86
80246;BMP280;69558;39.208;-77.226;2023-05-02T11:50:55;98284.34;;;19.91
80246;BMP280;69558;39.208;-77.226;2023-05-02T11:53:23;98280.88;;;19.85
80246;BMP280;69558;39.208;-77.226;2023-05-02T11:55:58;98293.25;;;19.85
80246;BMP280;69558;39.208;-77.226;2023-05-02T11:58:27;98292.38;;;19.79
80246;BMP280;69558;39.208;-77.226;2023-05-02T12:00:59;98291.06;;;19.82
80246;BMP280;69558;39.208;-77.226;2023-05-02T12:03:36;98296.31;;;19.82
80246;BMP280;69558;39.208;-77.226;2023-05-02T12:06:13;98298.22;;;19.86
80246;BMP280;69558;39.208;-77.226;2023-05-02T12:08:41;98291.84;;;19.82
80246;BMP280;69558;39.208;-77.226;2023-05-02T12:11:07;98295.88;;;19.85
80246;BMP280;69558;39.208;-77.226;2023-05-02T12:13:33;98288.44;;;19.82
80246;BMP280;69558;39.208;-77.226;2023-05-02T12:15:59;98256.63;;;19.61
80246;BMP280;69558;39.208;-77.226;2023-05-02T12:18:26;98290.31;;;19.81
80246;BMP280;69558;39.208;-77.226;2023-05-02T12:20:53;98284.78;;;19.83
80246;BMP280;69558;39.208;-77.226;2023-05-02T12:23:22;98265.75;;;19.75
80246;BMP280;69558;39.208;-77.226;2023-05-02T12:25:49;98277.31;;;19.74
80246;BMP280;69558;39.208;-77.226;2023-05-02T12:28:18;98275.78;;;19.78
80246;BMP280;69558;39.208;-77.226;2023-05-02T12:30:47;98286.88;;;19.81
80246;BMP280;69558;39.208;-77.226;2023-05-02T12:33:15;98288.16;;;19.78
80246;BMP280;69558;39.208;-77.226;2023-05-02T12:35:41;98279.44;;;19.77
80246;BMP280;69558;39.208;-77.226;2023-05-02T12:38:10;98280.03;;;19.79
80246;BMP280;69558;39.208;-77.226;2023-05-02T12:40:36;98279.66;;;19.71
80246;BMP280;69558;39.208;-77.226;2023-05-02T12:43:03;98279.16;;;19.74
80246;BMP280;69558;39.208;-77.226;2023-05-02T12:45:32;98282.50;;;19.69
80246;BMP280;69558;39.208;-77.226;2023-05-02T12:48:16;98285.28;;;19.79
80246;BMP280;69558;39.208;-77.226;2023-05-02T12:50:42;98278.19;;;19.80
80246;BMP280;69558;39.208;-77.226;2023-05-02T12:53:08;98281.69;;;19.86
80246;BMP280;69558;39.208;-77.226;2023-05-02T12:55:34;98272.63;;;19.76
80246;BMP280;69558;39.208;-77.226;2023-05-02T12:58:05;98258.59;;;19.71
80246;BMP280;69558;39.208;-77.226;2023-05-02T13:00:35;98284.34;;;19.91
80246;BMP280;69558;39.208;-77.226;2023-05-02T13:03:01;98271.19;;;19.91
80246;BMP280;69558;39.208;-77.226;2023-05-02T13:05:27;98275.72;;;19.95
80246;BMP280;69558;39.208;-77.226;2023-05-02T13:07:53;98266.56;;;19.98
80246;BMP280;69558;39.208;-77.226;2023-05-02T13:10:21;98267.69;;;20.02
80246;BMP280;69558;39.208;-77.226;2023-05-02T13:12:49;98265.56;;;20.04
80246;BMP280;69558;39.208;-77.226;2023-05-02T13:15:15;98267.41;;;20.03
80246;BMP280;69558;39.208;-77.226;2023-05-02T13:17:41;98247.16;;;20.04
80246;BMP280;69558;39.208;-77.226;2023-05-02T13:20:08;98243.09;;;19.96
80246;BMP280;69558;39.208;-77.226;2023-05-02T13:22:34;98242.03;;;19.92
80246;BMP280;69558;39.208;-77.226;2023-05-02T13:25:05;98233.03;;;19.88
80246;BMP280;69558;39.208;-77.226;2023-05-02T13:27:33;98232.31;;;19.93
80246;BMP280;69558;39.208;-77.226;2023-05-02T13:30:00;98234.41;;;19.96
80246;BMP280;69558;39.208;-77.226;2023-05-02T13:32:28;98236.84;;;19.97
80246;BMP280;69558;39.208;-77.226;2023-05-02T13:34:54;98242.63;;;19.99
80246;BMP280;69558;39.208;-77.226;2023-05-02T13:37:20;98227.56;;;19.95
80246;BMP280;69558;39.208;-77.226;2023-05-02T13:39:46;98242.16;;;20.02
80246;BMP280;69558;39.208;-77.226;2023-05-02T13:42:12;98239.75;;;20.01
80246;BMP280;69558;39.208;-77.226;2023-05-02T13:44:38;98235.28;;;20.01
80246;BMP280;69558;39.208;-77.226;2023-05-02T13:47:04;98237.09;;;20.01
80246;BMP280;69558;39.208;-77.226;2023-05-02T13:49:30;98230.25;;;20.00
80246;BMP280;69558;39.208;-77.226;2023-05-02T13:51:57;98213.84;;;19.88
80246;BMP280;69558;39.208;-77.226;2023-05-02T13:54:22;98216.69;;;19.86
80246;BMP280;69558;39.208;-77.226;2023-05-02T13:56:48;98227.84;;;19.93
80246;BMP280;69558;39.208;-77.226;2023-05-02T13:59:15;98224.69;;;19.96
80246;BMP280;69558;39.208;-77.226;2023-05-02T14:01:41;98241.56;;;20.00
80246;BMP280;69558;39.208;-77.226;2023-05-02T14:04:07;98240.00;;;19.99
80246;BMP280;69558;39.208;-77.226;2023-05-02T14:06:33;98238.16;;;20.00
80246;BMP280;69558;39.208;-77.226;2023-05-02T14:09:00;98241.06;;;19.98
80246;BMP280;69558;39.208;-77.226;2023-05-02T14:11:26;98239.22;;;19.99
80246;BMP280;69558;39.208;-77.226;2023-05-02T14:13:52;98244.47;;;19.99
80246;BMP280;69558;39.208;-77.226;2023-05-02T14:16:18;98236.84;;;19.97
80246;BMP280;69558;39.208;-77.226;2023-05-02T14:18:44;98242.31;;;19.96
80246;BMP280;69558;39.208;-77.226;2023-05-02T14:21:10;98254.44;;;19.97
80246;BMP280;69558;39.208;-77.226;2023-05-02T14:23:36;98247.88;;;19.99
80246;BMP280;69558;39.208;-77.226;2023-05-02T14:26:02;98255.31;;;20.02
80246;BMP280;69558;39.208;-77.226;2023-05-02T14:28:28;98253.94;;;20.00
80246;BMP280;69558;39.208;-77.226;2023-05-02T14:30:54;98258.91;;;19.96
80246;BMP280;69558;39.208;-77.226;2023-05-02T14:33:20;98246.78;;;19.95
80246;BMP280;69558;39.208;-77.226;2023-05-02T14:35:46;98257.31;;;19.95